createdAt,value
2018-05-09T00:01:53.656Z,17.20
2018-05-09T00:04:21.508Z,17.10
2018-05-09T00:06:49.201Z,17.20
2018-05-09T00:09:16.967Z,17.10
2018-05-09T00:11:45.393Z,17.10
2018-05-09T00:14:13.033Z,17.00
2018-05-09T00:16:40.660Z,17.00
2018-05-09T00:19:08.283Z,17.00
2018-05-09T00:21:35.895Z,17.00
2018-05-09T00:24:03.500Z,17.00
2018-05-09T00:26:31.198Z,16.90
2018-05-09T00:28:59.651Z,16.90
2018-05-09T00:31:27.319Z,16.90
2018-05-09T00:33:54.998Z,16.90
2018-05-09T00:36:22.699Z,16.90
2018-05-09T00:38:51.090Z,16.90
2018-05-09T00:41:18.722Z,16.90
2018-05-09T00:43:46.393Z,16.90
2018-05-09T00:46:14.108Z,16.90
2018-05-09T00:48:41.804Z,16.80
2018-05-09T00:51:09.604Z,16.80
2018-05-09T00:53:37.223Z,16.80
2018-05-09T00:56:04.860Z,16.80
2018-05-09T00:58:33.345Z,16.80
2018-05-09T01:01:01.058Z,16.70
2018-05-09T01:03:28.670Z,16.80
2018-05-09T01:05:56.460Z,16.70
2018-05-09T01:08:24.112Z,16.70
2018-05-09T01:10:51.758Z,16.70
2018-05-09T01:13:19.523Z,16.70
2018-05-09T01:15:47.169Z,16.70
2018-05-09T01:18:14.805Z,16.60
2018-05-09T01:20:43.201Z,16.60
2018-05-09T01:23:11.009Z,16.60
2018-05-09T01:25:39.663Z,16.50
2018-05-09T01:28:07.340Z,16.40
2018-05-09T01:30:35.845Z,16.40
2018-05-09T01:33:03.500Z,16.40
2018-05-09T01:35:31.189Z,16.30
2018-05-09T01:37:59.022Z,16.30
2018-05-09T01:40:27.578Z,16.20
2018-05-09T01:42:55.167Z,16.20
2018-05-09T01:45:22.822Z,16.20
2018-05-09T01:47:51.236Z,16.10
2018-05-09T01:50:19.687Z,16.10
2018-05-09T01:52:48.016Z,16.10
2018-05-09T01:55:16.615Z,16.10
2018-05-09T01:57:44.285Z,16.00
2018-05-09T02:00:51.636Z,15.90
2018-05-09T02:03:19.271Z,15.90
2018-05-09T02:05:47.517Z,15.90
2018-05-09T02:08:15.111Z,15.80
2018-05-09T02:10:42.744Z,15.80
2018-05-09T02:13:11.129Z,15.60
2018-05-09T02:15:38.770Z,15.60
2018-05-09T02:18:06.392Z,15.60
2018-05-09T02:20:34.062Z,15.50
2018-05-09T02:23:02.435Z,15.50
2018-05-09T02:25:30.068Z,15.40
2018-05-09T02:27:57.710Z,15.40
2018-05-09T02:30:25.415Z,15.40
2018-05-09T02:32:53.044Z,15.40
2018-05-09T02:35:20.723Z,15.30
2018-05-09T02:37:49.099Z,15.30
2018-05-09T02:40:16.739Z,15.20
2018-05-09T02:42:44.359Z,15.20
2018-05-09T02:45:12.861Z,15.10
2018-05-09T02:47:42.075Z,15.10
2018-05-09T02:50:11.309Z,15.00
2018-05-09T02:52:40.277Z,15.00
2018-05-09T02:57:53.139Z,15.00
2018-05-09T03:00:20.977Z,15.00
2018-05-09T03:02:49.538Z,14.90
2018-05-09T03:05:17.318Z,14.90
2018-05-09T03:07:47.727Z,14.90
2018-05-09T03:10:15.560Z,14.90
2018-05-09T03:12:43.291Z,15.00
2018-05-09T03:15:12.288Z,14.90
2018-05-09T03:17:40.117Z,14.90
2018-05-09T03:20:08.666Z,14.90
2018-05-09T03:22:36.474Z,14.80
2018-05-09T03:25:04.236Z,14.70
2018-05-09T03:27:31.997Z,14.60
2018-05-09T03:30:01.523Z,14.50
2018-05-09T03:32:30.058Z,14.40
2018-05-09T03:34:57.773Z,14.40
2018-05-09T03:37:25.514Z,14.40
2018-05-09T03:39:53.079Z,14.40
2018-05-09T03:42:20.799Z,14.30
2018-05-09T03:44:48.469Z,14.30
2018-05-09T03:47:16.888Z,14.20
2018-05-09T03:49:44.526Z,14.20
2018-05-09T03:52:13.089Z,14.20
2018-05-09T03:54:40.925Z,14.10
2018-05-09T03:57:08.706Z,14.10
2018-05-09T03:59:36.427Z,14.00
2018-05-09T04:02:16.918Z,14.00
2018-05-09T04:04:57.194Z,14.00
2018-05-09T04:07:36.689Z,13.90
2018-05-09T04:10:04.446Z,14.00
2018-05-09T04:12:32.126Z,14.00
2018-05-09T04:15:05.134Z,14.00
2018-05-09T04:17:33.584Z,13.90
2018-05-09T04:20:02.103Z,14.00
2018-05-09T04:22:30.619Z,14.10
2018-05-09T04:24:58.299Z,14.10
2018-05-09T04:27:26.642Z,14.00
2018-05-09T04:29:54.343Z,14.10
2018-05-09T04:32:21.998Z,14.10
2018-05-09T04:34:50.222Z,14.10
2018-05-09T04:37:17.847Z,14.10
2018-05-09T04:39:45.547Z,14.10
2018-05-09T04:42:13.357Z,14.10
2018-05-09T04:44:42.215Z,14.20
2018-05-09T04:47:10.759Z,14.20
2018-05-09T04:49:38.419Z,14.20
2018-05-09T04:52:06.249Z,14.30
2018-05-09T04:54:35.031Z,14.30
2018-05-09T04:57:03.532Z,14.40
2018-05-09T04:59:31.886Z,14.40
2018-05-09T05:01:59.572Z,14.30
2018-05-09T05:04:27.497Z,14.40
2018-05-09T05:06:56.064Z,14.40
2018-05-09T05:09:23.675Z,14.40
2018-05-09T05:11:51.422Z,14.40
2018-05-09T05:14:20.124Z,14.50
2018-05-09T05:16:47.827Z,14.60
2018-05-09T05:19:16.522Z,14.60
2018-05-09T05:21:44.354Z,14.60
2018-05-09T05:24:12.708Z,14.70
2018-05-09T05:26:40.437Z,14.70
2018-05-09T05:29:08.177Z,14.80
2018-05-09T05:31:36.666Z,14.90
2018-05-09T05:34:04.465Z,14.80
2018-05-09T05:36:32.190Z,14.90
2018-05-09T05:39:00.007Z,14.90
2018-05-09T05:41:27.754Z,14.90
2018-05-09T05:43:56.331Z,14.90
2018-05-09T05:46:24.102Z,14.90
2018-05-09T05:48:51.816Z,15.00
2018-05-09T05:51:20.269Z,15.10
2018-05-09T05:53:47.977Z,15.00
2018-05-09T05:56:15.641Z,15.10
2018-05-09T05:58:44.098Z,15.20
2018-05-09T06:01:11.779Z,15.20
2018-05-09T06:03:40.574Z,15.30
2018-05-09T06:06:08.733Z,15.30
2018-05-09T06:08:36.415Z,15.40
2018-05-09T06:11:04.000Z,15.50
2018-05-09T06:13:31.662Z,15.50
2018-05-09T06:15:59.305Z,15.50
2018-05-09T06:18:27.068Z,15.50
2018-05-09T06:21:12.879Z,15.50
2018-05-09T06:23:40.729Z,15.50
2018-05-09T06:26:10.057Z,15.60
2018-05-09T06:28:37.790Z,15.60
2018-05-09T06:31:05.453Z,15.70
2018-05-09T06:33:33.214Z,15.80
2018-05-09T06:36:00.872Z,15.90
2018-05-09T06:38:29.267Z,16.10
2018-05-09T06:40:56.943Z,16.10
2018-05-09T06:43:24.648Z,16.20
2018-05-09T06:45:52.428Z,16.30
2018-05-09T06:48:20.227Z,16.40
2018-05-09T06:50:49.000Z,16.50
2018-05-09T06:53:19.921Z,16.60
2018-05-09T06:55:47.529Z,16.70
2018-05-09T06:58:15.967Z,16.80
2018-05-09T07:02:19.868Z,16.80
2018-05-09T07:04:48.232Z,17.00
2018-05-09T07:07:16.321Z,16.90
2018-05-09T07:09:43.955Z,17.00
2018-05-09T07:12:11.629Z,17.10
2018-05-09T07:14:39.221Z,17.10
2018-05-09T07:17:07.966Z,17.30
2018-05-09T07:19:35.892Z,17.20
2018-05-09T07:22:03.855Z,17.40
2018-05-09T07:24:32.236Z,17.60
2018-05-09T07:27:00.585Z,17.70
2018-05-09T07:29:28.236Z,17.60
2018-05-09T07:31:55.856Z,17.80
2018-05-09T07:34:23.515Z,17.90
2018-05-09T07:36:51.151Z,18.00
2018-05-09T07:39:18.914Z,18.10
2018-05-09T07:41:46.673Z,18.20
2018-05-09T07:44:14.385Z,18.20
2018-05-09T07:46:42.650Z,18.40
2018-05-09T07:49:11.116Z,18.50
2018-05-09T07:51:38.727Z,18.50
2018-05-09T07:54:06.350Z,18.60
2018-05-09T07:56:34.061Z,18.70
2018-05-09T07:59:01.711Z,18.90
2018-05-09T08:01:30.142Z,19.00
2018-05-09T08:03:58.100Z,18.90
2018-05-09T08:06:25.830Z,19.10
2018-05-09T08:08:53.515Z,19.20
2018-05-09T08:11:21.200Z,19.30
2018-05-09T08:13:49.067Z,19.30
2018-05-09T08:16:17.734Z,19.50
2018-05-09T08:18:45.435Z,19.50
2018-05-09T08:21:13.217Z,19.60
2018-05-09T08:23:41.282Z,19.80
2018-05-09T08:26:09.152Z,19.80
2018-05-09T08:28:37.766Z,20.10
2018-05-09T08:31:05.536Z,20.00
2018-05-09T08:33:33.185Z,20.20
2018-05-09T08:36:01.093Z,20.30
2018-05-09T08:38:29.331Z,20.40
2018-05-09T08:40:56.963Z,20.50
2018-05-09T08:43:25.572Z,20.60
2018-05-09T08:45:53.213Z,20.70
2018-05-09T08:48:21.637Z,20.90
2018-05-09T08:50:51.811Z,21.00
2018-05-09T08:53:20.954Z,21.00
2018-05-09T08:55:48.696Z,21.00
2018-05-09T08:58:16.693Z,21.20
2018-05-09T09:00:45.489Z,21.40
2018-05-09T09:03:13.254Z,21.40
2018-05-09T09:05:41.637Z,21.50
2018-05-09T09:08:10.144Z,21.60
2018-05-09T09:10:38.031Z,21.50
2018-05-09T09:13:05.722Z,21.70
2018-05-09T09:15:33.538Z,21.80
2018-05-09T09:18:03.749Z,22.00
2018-05-09T09:20:33.871Z,22.00
2018-05-09T09:23:01.733Z,22.10
2018-05-09T09:25:29.659Z,22.20
2018-05-09T09:27:57.305Z,22.20
2018-05-09T09:30:26.546Z,22.40
2018-05-09T09:32:54.265Z,22.40
2018-05-09T09:35:21.987Z,22.60
2018-05-09T09:37:49.682Z,22.60
2018-05-09T09:40:18.580Z,22.70
2018-05-09T09:42:46.731Z,22.90
2018-05-09T09:45:14.448Z,22.90
2018-05-09T09:47:42.415Z,23.00
2018-05-09T09:50:10.291Z,23.10
2018-05-09T09:52:39.348Z,23.20
2018-05-09T09:55:07.220Z,23.20
2018-05-09T09:57:35.008Z,23.30
2018-05-09T10:00:03.506Z,23.20
2018-05-09T10:02:31.287Z,23.10
2018-05-09T10:04:59.781Z,23.30
2018-05-09T10:07:27.667Z,23.20
2018-05-09T10:09:56.447Z,23.40
2018-05-09T10:12:25.408Z,23.40
2018-05-09T10:14:53.299Z,23.40
2018-05-09T10:17:21.448Z,23.50
2018-05-09T10:19:50.304Z,23.60
2018-05-09T10:22:19.783Z,23.70
2018-05-09T10:24:49.777Z,24.20
2018-05-09T10:27:17.475Z,24.20
2018-05-09T10:29:46.674Z,24.50
2018-05-09T10:32:14.288Z,24.50
2018-05-09T10:34:46.001Z,24.80
2018-05-09T10:37:13.672Z,24.80
2018-05-09T10:39:41.805Z,24.70
2018-05-09T10:42:09.935Z,24.70
2018-05-09T10:44:37.559Z,24.60
2018-05-09T10:47:05.235Z,24.50
2018-05-09T10:49:32.967Z,24.50
2018-05-09T10:52:02.323Z,24.40
2018-05-09T10:54:30.056Z,24.40
2018-05-09T10:56:59.680Z,24.50
2018-05-09T10:59:31.879Z,24.50
2018-05-09T11:01:59.552Z,24.60
2018-05-09T11:04:27.356Z,24.60
2018-05-09T11:06:56.811Z,24.90
2018-05-09T11:09:25.159Z,24.90
2018-05-09T11:11:52.793Z,24.90
2018-05-09T11:14:21.241Z,24.90
2018-05-09T11:16:48.859Z,24.80
2018-05-09T11:19:16.789Z,24.80
2018-05-09T11:21:45.672Z,24.80
2018-05-09T11:24:13.309Z,24.80
2018-05-09T11:26:41.789Z,25.40
2018-05-09T11:29:09.472Z,25.30
2018-05-09T11:31:37.097Z,25.60
2018-05-09T11:34:04.707Z,25.80
2018-05-09T11:36:32.310Z,26.00
2018-05-09T11:38:59.928Z,26.20
2018-05-09T11:41:27.572Z,26.40
2018-05-09T11:43:55.210Z,26.40
2018-05-09T11:46:22.876Z,26.10
2018-05-09T11:48:51.151Z,26.00
2018-05-09T11:51:20.209Z,26.20
2018-05-09T11:53:47.835Z,26.20
2018-05-09T11:56:15.667Z,26.60
2018-05-09T11:58:44.178Z,27.20
2018-05-09T12:01:12.637Z,27.10
2018-05-09T12:03:40.982Z,27.20
2018-05-09T12:06:10.745Z,27.20
2018-05-09T12:08:38.878Z,27.20
2018-05-09T12:11:07.863Z,27.20
2018-05-09T12:13:35.528Z,27.20
2018-05-09T12:16:03.305Z,27.20
2018-05-09T12:18:32.966Z,27.30
2018-05-09T12:21:02.672Z,27.20
2018-05-09T12:23:31.903Z,27.40
2018-05-09T12:25:59.571Z,27.40
2018-05-09T12:28:28.358Z,27.30
2018-05-09T12:30:56.074Z,27.20
2018-05-09T12:33:24.558Z,27.00
2018-05-09T12:35:53.203Z,27.00
2018-05-09T12:38:23.197Z,27.50
2018-05-09T12:40:50.825Z,27.40
2018-05-09T12:43:20.062Z,27.80
2018-05-09T12:45:49.508Z,27.70
2018-05-09T12:48:17.133Z,27.80
2018-05-09T12:50:45.489Z,27.60
2018-05-09T12:53:13.220Z,27.40
2018-05-09T12:55:40.960Z,27.30
2018-05-09T12:58:09.801Z,27.30
2018-05-09T13:00:37.701Z,27.20
2018-05-09T13:03:05.409Z,27.30
2018-05-09T13:05:33.165Z,27.20
2018-05-09T13:08:01.039Z,27.00
2018-05-09T13:10:29.505Z,27.10
2018-05-09T13:12:57.233Z,27.10
2018-05-09T13:15:26.095Z,27.30
2018-05-09T13:17:55.651Z,27.50
2018-05-09T13:20:23.343Z,27.60
2018-05-09T13:22:53.290Z,27.70
2018-05-09T13:25:20.939Z,27.70
2018-05-09T13:27:48.653Z,27.60
2018-05-09T13:30:16.356Z,27.60
2018-05-09T13:32:44.037Z,27.70
2018-05-09T13:35:12.525Z,27.60
2018-05-09T13:37:40.322Z,27.60
2018-05-09T13:40:08.133Z,27.70
2018-05-09T13:42:36.504Z,28.30
2018-05-09T13:45:04.243Z,28.20
2018-05-09T13:47:31.978Z,28.20
2018-05-09T13:50:00.152Z,28.30
2018-05-09T13:52:28.510Z,28.40
2018-05-09T13:54:57.517Z,28.80
2018-05-09T13:57:25.182Z,28.70
2018-05-09T13:59:52.847Z,29.00
2018-05-09T14:02:20.459Z,29.20
2018-05-09T14:04:48.101Z,29.30
2018-05-09T14:07:15.788Z,29.40
2018-05-09T14:09:43.499Z,29.40
2018-05-09T14:12:11.954Z,29.50
2018-05-09T14:14:39.690Z,29.60
2018-05-09T14:17:07.355Z,29.60
2018-05-09T14:19:35.055Z,29.80
2018-05-09T14:22:02.855Z,29.90
2018-05-09T14:24:44.318Z,29.90
2018-05-09T14:27:12.178Z,29.90
2018-05-09T14:29:40.279Z,30.10
2018-05-09T14:32:09.389Z,30.30
2018-05-09T14:34:36.947Z,30.20
2018-05-09T14:37:05.419Z,30.40
2018-05-09T14:39:34.420Z,30.60
2018-05-09T14:44:36.023Z,30.60
2018-05-09T14:47:04.531Z,30.70
2018-05-09T14:49:33.026Z,30.80
2018-05-09T14:52:02.680Z,31.00
2018-05-09T14:54:31.151Z,31.00
2018-05-09T14:56:59.869Z,31.00
2018-05-09T14:59:27.548Z,31.10
2018-05-09T15:01:56.135Z,31.20
2018-05-09T15:04:26.736Z,31.30
2018-05-09T15:06:55.181Z,31.30
2018-05-09T15:09:22.834Z,31.30
2018-05-09T15:11:50.521Z,31.40
2018-05-09T15:14:19.146Z,31.40
2018-05-09T15:16:48.564Z,31.40
2018-05-09T15:19:16.231Z,31.40
2018-05-09T15:21:43.894Z,31.30
2018-05-09T15:24:11.770Z,31.50
2018-05-09T15:26:39.621Z,31.60
2018-05-09T15:29:09.788Z,31.80
2018-05-09T15:31:37.699Z,31.70
2018-05-09T15:34:06.220Z,31.70
2018-05-09T15:36:34.664Z,31.80
2018-05-09T15:39:02.480Z,31.80
2018-05-09T15:41:30.942Z,31.80
2018-05-09T15:43:58.905Z,31.70
2018-05-09T15:46:26.687Z,31.70
2018-05-09T15:48:55.214Z,31.60
2018-05-09T15:51:22.901Z,31.70
2018-05-09T15:53:51.321Z,31.80
2018-05-09T15:56:19.775Z,31.80
2018-05-09T15:58:48.357Z,31.80
2018-05-09T16:01:16.230Z,31.80
2018-05-09T16:03:43.931Z,31.90
2018-05-09T16:06:11.765Z,32.00
2018-05-09T16:08:39.397Z,32.00
2018-05-09T16:11:07.296Z,31.90
2018-05-09T16:13:35.432Z,31.90
2018-05-09T16:16:03.199Z,31.90
2018-05-09T16:18:30.945Z,32.00
2018-05-09T16:20:58.643Z,32.10
2018-05-09T16:23:27.083Z,32.10
2018-05-09T16:25:55.040Z,32.00
2018-05-09T16:28:22.639Z,32.20
2018-05-09T16:30:50.266Z,32.10
2018-05-09T16:33:17.898Z,32.20
2018-05-09T16:35:45.561Z,32.00
2018-05-09T16:38:13.193Z,32.10
2018-05-09T16:40:41.621Z,32.00
2018-05-09T16:43:10.072Z,32.10
2018-05-09T16:45:37.706Z,32.00
2018-05-09T16:48:06.078Z,32.10
2018-05-09T16:50:33.694Z,32.00
2018-05-09T16:53:02.094Z,32.10
2018-05-09T16:55:30.530Z,32.00
2018-05-09T16:57:58.147Z,32.00
2018-05-09T17:00:25.800Z,31.90
2018-05-09T17:02:53.423Z,31.80
2018-05-09T17:05:21.379Z,31.70
2018-05-09T17:07:49.802Z,31.50
2018-05-09T17:10:17.454Z,31.50
2018-05-09T17:12:45.869Z,31.40
2018-05-09T17:15:14.267Z,31.30
2018-05-09T17:17:41.915Z,31.30
2018-05-09T17:20:09.654Z,31.30
2018-05-09T17:22:37.446Z,31.30
2018-05-09T17:25:05.865Z,31.10
2018-05-09T17:27:33.497Z,31.00
2018-05-09T17:30:01.131Z,30.90
2018-05-09T17:32:28.770Z,30.50
2018-05-09T17:34:57.207Z,30.00
2018-05-09T17:37:24.870Z,29.90
2018-05-09T17:39:52.937Z,29.90
2018-05-09T17:42:20.557Z,29.90
2018-05-09T17:44:48.951Z,29.80
2018-05-09T17:47:16.844Z,29.70
2018-05-09T17:49:45.618Z,29.60
2018-05-09T17:52:13.233Z,29.60
2018-05-09T17:54:41.090Z,29.60
2018-05-09T17:57:08.740Z,29.50
2018-05-09T17:59:38.460Z,29.20
2018-05-09T18:02:06.120Z,29.20
2018-05-09T18:04:33.782Z,29.10
2018-05-09T18:07:01.438Z,29.00
2018-05-09T18:09:29.844Z,28.80
2018-05-09T18:11:58.225Z,28.70
2018-05-09T18:14:26.152Z,28.60
2018-05-09T18:16:54.250Z,28.50
2018-05-09T18:19:21.911Z,28.40
2018-05-09T18:21:50.505Z,28.10
2018-05-09T18:24:18.119Z,28.00
2018-05-09T18:26:46.503Z,27.70
2018-05-09T18:29:14.175Z,27.60
2018-05-09T18:31:41.817Z,27.50
2018-05-09T18:34:09.448Z,27.30
2018-05-09T18:36:37.799Z,27.10
2018-05-09T18:39:05.531Z,26.80
2018-05-09T18:41:33.168Z,26.60
2018-05-09T18:44:00.864Z,26.40
2018-05-09T18:46:43.150Z,26.30
2018-05-09T18:49:10.790Z,26.10
2018-05-09T18:51:38.452Z,25.90
2018-05-09T18:54:06.108Z,25.80
2018-05-09T18:56:33.801Z,25.60
2018-05-09T18:59:05.008Z,25.50
2018-05-09T19:01:33.491Z,25.20
2018-05-09T19:04:02.255Z,25.20
2018-05-09T19:06:30.046Z,25.10
2018-05-09T19:08:57.590Z,25.00
2018-05-09T19:11:26.132Z,24.80
2018-05-09T19:13:53.842Z,24.70
2018-05-09T19:16:21.612Z,24.70
2018-05-09T19:18:49.435Z,24.50
2018-05-09T19:21:17.225Z,24.40
2018-05-09T19:23:46.173Z,24.30
2018-05-09T19:29:13.337Z,24.00
2018-05-09T19:31:43.001Z,23.90
2018-05-09T19:34:10.642Z,23.80
2018-05-09T19:36:39.123Z,23.70
2018-05-09T19:39:06.799Z,23.60
2018-05-09T19:41:34.555Z,23.60
2018-05-09T19:44:02.186Z,23.60
2018-05-09T19:46:29.958Z,23.50
2018-05-09T19:48:58.670Z,23.40
2018-05-09T19:51:26.374Z,23.30
2018-05-09T19:53:56.516Z,23.20
2018-05-09T19:56:24.911Z,23.10
2018-05-09T19:58:52.573Z,23.00
2018-05-09T20:01:21.573Z,22.90
2018-05-09T20:03:50.607Z,22.90
2018-05-09T20:06:19.113Z,22.70
2018-05-09T20:08:47.731Z,22.70
2018-05-09T20:11:15.370Z,22.70
2018-05-09T20:13:43.137Z,22.60
2018-05-09T20:16:10.838Z,22.60
2018-05-09T20:18:39.666Z,22.50
2018-05-09T20:21:08.288Z,22.40
2018-05-09T20:23:36.147Z,22.30
2018-05-09T20:26:04.533Z,22.20
2018-05-09T20:28:33.083Z,22.20
2018-05-09T20:34:27.908Z,22.10
2018-05-09T20:36:56.101Z,22.00
2018-05-09T20:39:25.758Z,21.80
2018-05-09T20:41:53.464Z,21.80
2018-05-09T20:44:22.448Z,21.70
2018-05-09T20:46:50.147Z,21.70
2018-05-09T20:49:17.793Z,21.70
2018-05-09T20:51:51.427Z,21.60
2018-05-09T20:54:19.030Z,21.60
2018-05-09T20:56:46.904Z,21.60
2018-05-09T20:59:14.538Z,21.50
2018-05-09T21:01:50.163Z,21.50
2018-05-09T21:04:17.838Z,21.40
2018-05-09T21:06:46.559Z,21.30
2018-05-09T21:09:14.172Z,21.30
2018-05-09T21:14:41.456Z,21.20
2018-05-09T21:17:09.892Z,21.10
2018-05-09T21:19:38.421Z,21.20
2018-05-09T21:22:06.425Z,21.10
2018-05-09T21:24:34.049Z,21.10
2018-05-09T21:27:01.653Z,21.00
2018-05-09T21:29:29.392Z,21.00
2018-05-09T21:31:57.475Z,20.90
2018-05-09T21:34:26.922Z,20.80
2018-05-09T21:36:56.604Z,20.70
2018-05-09T21:39:26.394Z,20.50
2018-05-09T21:41:55.087Z,20.40
2018-05-09T21:44:23.686Z,20.30
2018-05-09T21:46:52.452Z,20.30
2018-05-09T21:49:21.321Z,20.30
2018-05-09T21:51:49.329Z,20.30
2018-05-09T21:54:18.592Z,20.40
2018-05-09T21:56:46.711Z,20.40
2018-05-09T22:02:11.543Z,20.30
2018-05-09T22:04:41.597Z,20.30
2018-05-09T22:07:10.052Z,20.20
2018-05-09T22:09:39.771Z,20.30
2018-05-09T22:12:09.672Z,20.20
2018-05-09T22:14:38.198Z,20.10
2018-05-09T22:17:06.183Z,20.20
2018-05-09T22:19:35.934Z,20.10
2018-05-09T22:22:04.532Z,20.10
2018-05-09T22:24:32.938Z,20.10
2018-05-09T22:27:00.627Z,20.00
2018-05-09T22:29:29.107Z,20.00
2018-05-09T22:31:56.824Z,19.90
2018-05-09T22:34:25.982Z,19.80
2018-05-09T22:36:53.674Z,19.80
2018-05-09T22:39:21.343Z,19.80
2018-05-09T22:41:49.090Z,19.80
2018-05-09T22:44:16.842Z,19.70
2018-05-09T22:46:45.727Z,19.60
2018-05-09T22:49:14.184Z,19.60
2018-05-09T22:51:41.822Z,19.50
2018-05-09T22:54:10.777Z,19.60
2018-05-09T22:56:38.969Z,19.50
2018-05-09T22:59:08.174Z,19.50
2018-05-09T23:01:36.789Z,19.50
2018-05-09T23:04:05.511Z,19.50
2018-05-09T23:06:34.585Z,19.50
2018-05-09T23:09:03.014Z,19.40
2018-05-09T23:11:31.210Z,19.40
2018-05-09T23:14:00.646Z,19.30
2018-05-09T23:16:29.622Z,19.20
2018-05-09T23:18:58.123Z,19.10
2018-05-09T23:21:28.208Z,19.20
2018-05-09T23:23:56.009Z,19.10
2018-05-09T23:26:24.829Z,19.00
2018-05-09T23:28:55.053Z,18.90
2018-05-09T23:31:23.322Z,18.90
2018-05-09T23:33:51.557Z,18.90
2018-05-09T23:36:19.794Z,18.80
2018-05-09T23:38:48.275Z,18.70
2018-05-09T23:41:16.092Z,18.70
2018-05-09T23:43:46.362Z,18.60
2018-05-09T23:46:14.536Z,18.60
2018-05-09T23:48:43.096Z,18.60
2018-05-09T23:51:12.158Z,18.60
2018-05-09T23:53:39.949Z,18.50
2018-05-09T23:56:07.604Z,18.50
2018-05-09T23:58:35.611Z,18.50
